Enter the Airport ICAO Code

Search by Airport or City

Current Weather

MMMY | General Mariano Escobedo International Airport

Monterrey, Nuevo León, Mexico

Last Update 1 Hour Ago

Completely Cloudy Sky

Temperature of 17 ºC

Light to Moderate Winds from East

Temperature

17 ºC

Dew Point Temperature

15 ºC

Relative Humidity

88.07 %

Wind Direction

East (110º, Without Significant Variations)

Wind Velocity

13 km/h (07 kt)

Gusts

None

Visibility

Reduced to 6 Miles

Sea Level Pressure

30.21 inHg (Inches of Mercury)

Layers of Clouds

90% to 100% of Sky Covered from 457 mts (1500 ft) Above Ground Level.

METAR MMMY 090849Z 11007KT 6SM OVC015 17/15 A3021 RMK SLP/// 5//// 9// 8/5// MSGTX MMMX

Weather Forecast

MMMY | General Mariano Escobedo International Airport

Monterrey, Nuevo León, Mexico

Forecast valid for the next 26 Hours

From now on it is expected:

Completely Cloudy Sky

Light to Moderate Winds from SouthEast

From now on it is expected 4 hours with intermittent periods of:

Mist

In 6 hours it is expected the begining of:

Mostly Cloudy Sky

Moderate Winds from SouthEast

In 17 hours it is expected the begining of:

Light to Moderate Winds from SouthEast

Maximum Temperature

27 ºC in 12 Hours

Minimum Temperature

12 ºC in 2 Hours

TAF MMMY 090340Z 0906/1012 12005KT P6SM OVC030 TX27/0922Z TN12/0912Z TEMPO 0910/0914 2SM BR BKN010 FM091600 12010KT P6SM SCT020 BKN250 FM100300 12005KT P6SM SCT020 BKN250